createdAt,value
2022-09-20T00:01:14.028Z,3.70
2022-09-20T00:03:44.467Z,1.87
2022-09-20T00:06:14.602Z,4.65
2022-09-20T00:08:43.221Z,2.92
2022-09-20T00:11:14.691Z,1.80
2022-09-20T00:13:45.884Z,2.95
2022-09-20T00:16:16.313Z,4.03
2022-09-20T00:18:44.844Z,1.70
2022-09-20T00:21:17.894Z,6.37
2022-09-20T00:23:46.389Z,0.50
2022-09-20T00:26:14.659Z,1.10
2022-09-20T00:28:44.790Z,0.85
2022-09-20T00:31:13.267Z,4.00
2022-09-20T00:33:59.084Z,0.43
2022-09-20T00:36:28.221Z,2.62
2022-09-20T00:38:57.533Z,0.95
2022-09-20T00:41:25.941Z,5.20
2022-09-20T00:43:55.746Z,3.65
2022-09-20T00:46:27.142Z,5.95
2022-09-20T00:48:59.553Z,2.65
2022-09-20T00:51:32.856Z,1.02
2022-09-20T00:54:04.572Z,4.57
2022-09-20T00:56:35.707Z,1.42
2022-09-20T00:59:12.690Z,1.05
2022-09-20T01:01:40.837Z,1.67
2022-09-20T01:04:09.612Z,4.05
2022-09-20T01:06:37.661Z,7.47
2022-09-20T01:09:07.717Z,3.37
2022-09-20T01:11:37.288Z,0.40
2022-09-20T01:14:06.690Z,5.15
2022-09-20T01:16:35.177Z,2.28
2022-09-20T01:19:09.587Z,1.75
2022-09-20T01:21:37.822Z,3.15
2022-09-20T01:24:13.257Z,1.80
2022-09-20T01:27:07.642Z,3.08
2022-09-20T01:29:51.349Z,5.03
2022-09-20T01:32:24.559Z,2.97
2022-09-20T01:34:57.167Z,0.65
2022-09-20T01:37:27.814Z,5.30
2022-09-20T01:40:04.551Z,2.67
2022-09-20T01:42:37.027Z,1.95
2022-09-20T01:45:15.799Z,1.27
2022-09-20T01:47:52.407Z,2.28
2022-09-20T01:50:32.670Z,2.80
2022-09-20T01:53:17.385Z,3.53
2022-09-20T01:56:17.866Z,3.92
2022-09-20T01:59:24.029Z,0.45
2022-09-20T02:02:22.392Z,6.12
2022-09-20T02:05:11.447Z,2.15
2022-09-20T02:08:03.390Z,5.57
2022-09-20T02:10:57.234Z,6.32
2022-09-20T02:13:31.307Z,4.62
2022-09-20T02:16:20.626Z,2.00
2022-09-20T02:19:18.100Z,3.17
2022-09-20T02:21:52.751Z,2.05
2022-09-20T02:24:30.274Z,2.65
2022-09-20T02:27:14.868Z,5.78
2022-09-20T02:29:49.411Z,5.22
2022-09-20T02:32:30.040Z,1.92
2022-09-20T02:35:20.810Z,4.80
2022-09-20T02:38:01.042Z,1.80
2022-09-20T02:40:55.519Z,5.20
2022-09-20T02:43:30.621Z,4.85
2022-09-20T02:46:07.559Z,2.42
2022-09-20T02:48:44.460Z,2.47
2022-09-20T02:51:22.955Z,3.50
2022-09-20T02:54:03.681Z,0.85
2022-09-20T02:56:39.370Z,5.43
2022-09-20T02:59:19.274Z,2.42
2022-09-20T03:01:57.279Z,2.72
2022-09-20T03:04:35.811Z,5.45
2022-09-20T03:07:11.228Z,3.35
2022-09-20T03:09:47.470Z,2.75
2022-09-20T03:12:27.458Z,2.55
2022-09-20T03:15:05.183Z,4.25
2022-09-20T03:17:46.060Z,6.00
2022-09-20T03:20:26.007Z,4.57
2022-09-20T03:23:02.070Z,0.90
2022-09-20T03:25:52.960Z,3.65
2022-09-20T03:28:37.684Z,2.15
2022-09-20T03:31:17.219Z,5.18
2022-09-20T03:33:53.623Z,3.45
2022-09-20T03:36:35.951Z,3.17
2022-09-20T03:39:18.982Z,4.53
2022-09-20T03:42:03.694Z,5.03
2022-09-20T03:44:51.519Z,5.03
2022-09-20T03:47:38.706Z,4.20
2022-09-20T03:50:21.998Z,1.60
2022-09-20T03:53:07.350Z,1.58
2022-09-20T03:56:05.003Z,3.35
2022-09-20T03:58:51.786Z,3.25
2022-09-20T04:01:40.014Z,2.87
2022-09-20T04:04:16.192Z,4.07
2022-09-20T04:06:58.295Z,6.43
2022-09-20T04:09:48.569Z,4.72
2022-09-20T04:12:28.622Z,3.60
2022-09-20T04:15:06.935Z,4.87
2022-09-20T04:17:43.879Z,6.80
2022-09-20T04:20:20.497Z,6.93
2022-09-20T04:22:52.238Z,6.82
2022-09-20T04:25:32.558Z,4.55
2022-09-20T04:28:10.251Z,8.32
2022-09-20T04:30:43.988Z,10.52
2022-09-20T04:33:20.291Z,7.80
2022-09-20T04:36:14.043Z,3.62
2022-09-20T04:38:42.723Z,7.00
2022-09-20T04:41:34.332Z,6.55
2022-09-20T04:44:28.190Z,4.55
2022-09-20T04:47:37.143Z,8.70
2022-09-20T04:50:31.303Z,7.03
2022-09-20T04:53:23.984Z,10.50
2022-09-20T04:55:55.658Z,10.18
2022-09-20T04:58:44.791Z,4.55
2022-09-20T05:02:00.089Z,10.20
2022-09-20T05:05:21.627Z,8.70
2022-09-20T05:08:16.262Z,6.95
2022-09-20T05:11:27.574Z,4.15
2022-09-20T05:14:12.936Z,10.15
2022-09-20T05:17:06.263Z,7.68
2022-09-20T05:19:46.603Z,5.22
2022-09-20T05:23:01.030Z,8.52
2022-09-20T05:25:49.387Z,6.68
2022-09-20T05:28:26.331Z,13.02
2022-09-20T05:30:58.704Z,7.45
2022-09-20T05:33:38.310Z,11.43
2022-09-20T05:36:13.489Z,13.23
2022-09-20T05:38:48.511Z,6.47
2022-09-20T05:41:31.887Z,9.43
2022-09-20T05:44:09.121Z,8.82
2022-09-20T05:46:51.046Z,8.40
2022-09-20T05:49:37.281Z,8.07
2022-09-20T05:52:16.586Z,8.75
2022-09-20T05:55:01.266Z,8.75
2022-09-20T05:57:47.502Z,7.68
2022-09-20T06:00:19.240Z,7.47
2022-09-20T06:02:55.816Z,10.18
2022-09-20T06:05:38.666Z,10.02
2022-09-20T06:08:26.402Z,11.12
2022-09-20T06:11:13.704Z,10.98
2022-09-20T06:14:03.584Z,6.43
2022-09-20T06:16:41.453Z,9.15
2022-09-20T06:19:19.953Z,10.30
2022-09-20T06:21:52.911Z,7.53
2022-09-20T06:24:33.425Z,9.15
2022-09-20T06:27:08.765Z,7.57
2022-09-20T06:29:49.047Z,7.90
2022-09-20T06:32:18.442Z,8.43
2022-09-20T06:34:48.435Z,7.45
2022-09-20T06:37:55.972Z,7.12
2022-09-20T06:40:51.560Z,9.90
2022-09-20T06:43:19.414Z,4.90
2022-09-20T06:45:48.546Z,9.20
2022-09-20T06:48:16.708Z,5.30
2022-09-20T06:50:45.510Z,11.23
2022-09-20T06:53:20.294Z,7.68
2022-09-20T06:55:48.707Z,5.62
2022-09-20T06:58:16.910Z,7.55
2022-09-20T07:00:45.222Z,10.45
2022-09-20T07:03:13.595Z,7.15
2022-09-20T07:05:41.806Z,5.95
2022-09-20T07:08:09.750Z,8.18
2022-09-20T07:10:39.396Z,11.45
2022-09-20T07:15:50.627Z,8.85
2022-09-20T07:18:23.179Z,8.27
2022-09-20T07:20:51.262Z,6.87
2022-09-20T07:23:19.318Z,9.30
2022-09-20T07:25:48.528Z,9.45
2022-09-20T07:28:16.420Z,9.65
2022-09-20T07:30:44.480Z,8.35
2022-09-20T07:33:17.080Z,6.53
2022-09-20T07:35:45.133Z,11.43
2022-09-20T07:38:13.336Z,5.90
2022-09-20T07:40:41.254Z,8.02
2022-09-20T07:43:10.680Z,5.07
2022-09-20T07:45:39.593Z,7.62
2022-09-20T07:48:09.555Z,7.87
2022-09-20T07:50:37.788Z,4.28
2022-09-20T07:53:05.707Z,4.75
2022-09-20T07:55:34.699Z,6.72
2022-09-20T07:58:02.832Z,4.60
2022-09-20T08:00:31.988Z,6.22
2022-09-20T08:03:01.060Z,3.65
2022-09-20T08:05:28.937Z,3.28
2022-09-20T08:07:56.886Z,4.32
2022-09-20T08:10:26.902Z,5.82
2022-09-20T08:15:44.572Z,7.72
2022-09-20T08:18:13.379Z,4.62
2022-09-20T08:20:41.249Z,6.97
2022-09-20T08:23:22.877Z,5.22
2022-09-20T08:25:51.489Z,3.30
2022-09-20T08:28:19.706Z,5.00
2022-09-20T08:30:48.962Z,4.87
2022-09-20T08:33:16.837Z,7.57
2022-09-20T08:35:44.922Z,5.43
2022-09-20T08:41:03.228Z,3.17
2022-09-20T08:43:39.732Z,5.55
2022-09-20T08:46:17.434Z,3.80
2022-09-20T08:48:46.372Z,4.37
2022-09-20T08:51:22.699Z,5.05
2022-09-20T08:53:53.578Z,6.10
2022-09-20T08:56:22.707Z,3.37
2022-09-20T08:58:51.850Z,5.43
2022-09-20T09:01:24.515Z,3.95
2022-09-20T09:03:55.133Z,5.30
2022-09-20T09:06:24.739Z,3.47
2022-09-20T09:08:53.607Z,6.60
2022-09-20T09:11:23.499Z,5.28
2022-09-20T09:13:55.347Z,3.40
2022-09-20T09:16:34.593Z,3.78
2022-09-20T09:19:33.934Z,7.70
2022-09-20T09:22:04.670Z,4.05
2022-09-20T09:24:32.742Z,6.35
2022-09-20T09:27:10.253Z,4.20
2022-09-20T09:29:52.182Z,5.32
2022-09-20T09:32:24.453Z,4.47
2022-09-20T09:34:52.490Z,4.45
2022-09-20T09:37:28.786Z,6.95
2022-09-20T09:40:10.425Z,4.37
2022-09-20T09:42:50.150Z,2.33
2022-09-20T09:45:31.355Z,6.25
2022-09-20T09:48:02.898Z,5.20
2022-09-20T09:50:33.532Z,1.80
2022-09-20T09:53:04.729Z,1.80
2022-09-20T09:55:45.670Z,6.43
2022-09-20T09:58:24.284Z,3.08
2022-09-20T10:00:54.955Z,3.72
2022-09-20T10:03:50.973Z,2.35
2022-09-20T10:06:25.905Z,3.25
2022-09-20T10:09:11.038Z,4.68
2022-09-20T10:11:50.846Z,2.83
2022-09-20T10:14:34.474Z,4.60
2022-09-20T10:17:18.998Z,2.83
2022-09-20T10:20:08.109Z,1.95
2022-09-20T10:23:06.713Z,4.32
2022-09-20T10:25:43.158Z,2.95
2022-09-20T10:28:37.886Z,2.53
2022-09-20T10:31:21.179Z,5.10
2022-09-20T10:34:16.810Z,3.08
2022-09-20T10:36:52.697Z,1.80
2022-09-20T10:39:26.347Z,3.10
2022-09-20T10:42:25.515Z,3.22
2022-09-20T10:45:07.376Z,1.67
2022-09-20T10:47:41.537Z,2.22
2022-09-20T10:50:38.292Z,3.97
2022-09-20T10:53:27.163Z,3.42
2022-09-20T10:56:09.499Z,2.58
2022-09-20T10:59:04.184Z,1.40
2022-09-20T11:01:37.863Z,2.05
2022-09-20T11:04:29.690Z,2.58
2022-09-20T11:07:09.728Z,3.92
2022-09-20T11:09:43.641Z,3.72
2022-09-20T11:12:16.564Z,4.43
2022-09-20T11:14:50.366Z,2.60
2022-09-20T11:17:23.983Z,3.12
2022-09-20T11:20:03.524Z,1.83
2022-09-20T11:22:41.382Z,2.60
2022-09-20T11:25:21.659Z,1.98
2022-09-20T11:27:56.131Z,3.60
2022-09-20T11:30:25.418Z,2.70
2022-09-20T11:32:57.953Z,3.35
2022-09-20T11:35:31.451Z,2.20
2022-09-20T11:38:09.547Z,1.62
2022-09-20T11:40:44.351Z,3.28
2022-09-20T11:43:14.814Z,1.73
2022-09-20T11:45:45.481Z,1.17
2022-09-20T11:48:21.031Z,3.25
2022-09-20T11:51:11.252Z,1.98
2022-09-20T11:54:11.182Z,4.00
2022-09-20T11:56:40.643Z,3.10
2022-09-20T11:59:28.505Z,1.20
2022-09-20T12:01:59.514Z,2.53
2022-09-20T12:04:33.417Z,3.92
2022-09-20T12:07:08.874Z,1.87
2022-09-20T12:09:41.663Z,3.22
2022-09-20T12:12:24.430Z,2.97
2022-09-20T12:14:56.958Z,1.70
2022-09-20T12:18:29.123Z,0.77
2022-09-20T12:21:07.362Z,2.22
2022-09-20T12:23:48.790Z,3.37
2022-09-20T12:26:53.013Z,1.20
2022-09-20T12:30:03.306Z,1.73
2022-09-20T12:32:57.387Z,2.58
2022-09-20T12:36:17.476Z,3.00
2022-09-20T12:38:50.443Z,2.78
2022-09-20T12:41:27.957Z,2.50
2022-09-20T12:44:01.744Z,1.95
2022-09-20T12:46:37.960Z,2.97
2022-09-20T12:49:52.806Z,1.00
2022-09-20T12:52:53.363Z,2.58
2022-09-20T12:55:45.657Z,1.20
2022-09-20T12:58:32.735Z,0.70
2022-09-20T13:01:31.248Z,3.40
2022-09-20T13:04:36.671Z,2.22
2022-09-20T13:07:43.724Z,1.70
2022-09-20T13:10:31.365Z,0.85
2022-09-20T13:13:05.671Z,0.60
2022-09-20T13:15:34.906Z,1.98
2022-09-20T13:18:03.598Z,1.15
2022-09-20T13:20:34.872Z,1.12
2022-09-20T13:23:06.250Z,1.05
2022-09-20T13:25:35.118Z,0.60
2022-09-20T13:28:09.962Z,3.67
2022-09-20T13:30:41.806Z,2.03
2022-09-20T13:33:24.101Z,2.50
2022-09-20T13:35:57.132Z,1.00
2022-09-20T13:38:31.459Z,0.93
2022-09-20T13:41:06.201Z,3.05
2022-09-20T13:43:38.834Z,1.30
2022-09-20T13:46:13.294Z,0.45
2022-09-20T13:48:42.512Z,2.15
2022-09-20T13:51:19.187Z,4.00
2022-09-20T13:53:50.193Z,0.60
2022-09-20T13:56:22.682Z,0.95
2022-09-20T13:58:52.746Z,1.50
2022-09-20T14:01:29.251Z,1.60
2022-09-20T14:04:06.179Z,0.77
2022-09-20T14:06:34.979Z,1.52
2022-09-20T14:09:11.135Z,0.82
2022-09-20T14:11:40.969Z,0.80
2022-09-20T14:14:10.749Z,1.17
2022-09-20T14:16:41.207Z,0.35
2022-09-20T14:19:09.782Z,3.75
2022-09-20T14:21:38.849Z,2.10
2022-09-20T14:24:23.891Z,0.30
2022-09-20T14:27:03.056Z,1.05
2022-09-20T14:29:38.494Z,0.95
2022-09-20T14:32:12.681Z,2.90
2022-09-20T14:34:42.343Z,0.82
2022-09-20T14:37:14.766Z,0.88
2022-09-20T14:39:49.876Z,0.50
2022-09-20T14:42:25.853Z,1.73
2022-09-20T14:44:54.226Z,0.90
2022-09-20T14:47:29.770Z,0.98
2022-09-20T14:49:58.941Z,0.65
2022-09-20T14:52:40.826Z,3.37
2022-09-20T14:55:22.522Z,0.75
2022-09-20T14:57:51.221Z,1.35
2022-09-20T15:00:22.124Z,0.52
2022-09-20T15:02:52.006Z,0.45
2022-09-20T15:05:26.009Z,0.30
2022-09-20T15:07:55.673Z,0.65
2022-09-20T15:10:25.518Z,0.93
2022-09-20T15:12:55.782Z,0.52
2022-09-20T15:15:24.293Z,0.93
2022-09-20T15:17:52.453Z,1.15
2022-09-20T15:20:24.422Z,1.08
2022-09-20T15:22:53.495Z,1.83
2022-09-20T15:25:22.248Z,0.50
2022-09-20T15:27:52.295Z,1.27
2022-09-20T15:30:21.072Z,1.33
2022-09-20T15:32:49.131Z,1.42
2022-09-20T15:35:17.208Z,0.82
2022-09-20T15:37:45.594Z,1.75
2022-09-20T15:40:13.542Z,1.40
2022-09-20T15:42:41.976Z,2.55
2022-09-20T15:45:12.672Z,2.12
2022-09-20T15:47:41.718Z,3.60
2022-09-20T15:50:10.944Z,1.17
2022-09-20T15:52:41.564Z,2.45
2022-09-20T15:55:10.897Z,1.55
2022-09-20T15:57:39.551Z,3.20
2022-09-20T16:00:09.243Z,1.45
2022-09-20T16:02:38.922Z,1.77
2022-09-20T16:05:06.923Z,1.40
2022-09-20T16:07:35.734Z,0.75
2022-09-20T16:10:03.998Z,0.98
2022-09-20T16:12:32.294Z,2.42
2022-09-20T16:15:00.119Z,0.65
2022-09-20T16:17:42.281Z,0.60
2022-09-20T16:20:11.777Z,0.82
2022-09-20T16:22:39.988Z,1.45
2022-09-20T16:25:08.962Z,1.00
2022-09-20T16:27:36.857Z,1.45
2022-09-20T16:30:05.646Z,3.10
2022-09-20T16:32:34.130Z,1.83
2022-09-20T16:35:03.905Z,1.08
2022-09-20T16:37:37.100Z,0.90
2022-09-20T16:40:05.511Z,1.33
2022-09-20T16:42:33.694Z,1.10
2022-09-20T16:45:01.943Z,0.80
2022-09-20T16:47:30.942Z,1.02
2022-09-20T16:49:59.016Z,0.73
2022-09-20T16:52:27.432Z,0.40
2022-09-20T16:54:56.612Z,0.60
2022-09-20T16:57:24.747Z,0.57
2022-09-20T16:59:55.704Z,0.40
2022-09-20T17:02:23.580Z,0.30
2022-09-20T17:04:51.919Z,0.30
2022-09-20T17:07:24.222Z,0.62
2022-09-20T17:09:53.471Z,1.08
2022-09-20T17:12:25.030Z,5.20
2022-09-20T17:14:53.110Z,1.50
2022-09-20T17:17:22.809Z,0.28
2022-09-20T17:19:50.672Z,0.98
2022-09-20T17:22:18.855Z,0.43
2022-09-20T17:24:46.771Z,0.85
2022-09-20T17:27:15.012Z,0.52
2022-09-20T17:29:45.404Z,0.35
2022-09-20T17:32:13.275Z,0.37
2022-09-20T17:34:41.327Z,1.83
2022-09-20T17:37:09.994Z,1.65
2022-09-20T17:39:37.981Z,1.33
2022-09-20T17:42:06.473Z,0.68
2022-09-20T17:44:36.758Z,1.75
2022-09-20T17:47:06.675Z,0.82
2022-09-20T17:49:34.871Z,2.58
2022-09-20T17:52:04.272Z,1.48
2022-09-20T17:54:32.172Z,1.08
2022-09-20T17:57:00.484Z,0.65
2022-09-20T17:59:28.360Z,7.40
2022-09-20T18:01:56.211Z,3.70
2022-09-20T18:04:25.623Z,3.87
2022-09-20T18:06:54.853Z,3.65
2022-09-20T18:09:24.670Z,2.72
2022-09-20T18:11:54.430Z,2.22
2022-09-20T18:14:24.083Z,4.15
2022-09-20T18:16:52.648Z,1.83
2022-09-20T18:19:22.588Z,1.65
2022-09-20T18:21:51.919Z,1.80
2022-09-20T18:24:20.096Z,1.00
2022-09-20T18:26:48.259Z,0.80
2022-09-20T18:29:18.166Z,1.08
2022-09-20T18:31:48.456Z,1.77
2022-09-20T18:34:18.498Z,2.97
2022-09-20T18:36:52.163Z,1.65
2022-09-20T18:39:24.439Z,5.00
2022-09-20T18:41:54.324Z,2.33
2022-09-20T18:44:23.886Z,2.20
2022-09-20T18:46:53.394Z,1.33
2022-09-20T18:49:22.755Z,0.88
2022-09-20T18:51:51.277Z,2.08
2022-09-20T18:54:22.242Z,1.00
2022-09-20T18:56:54.192Z,1.05
2022-09-20T18:59:25.147Z,1.33
2022-09-20T19:02:24.680Z,3.15
2022-09-20T19:05:13.228Z,2.08
2022-09-20T19:07:54.882Z,2.25
2022-09-20T19:10:37.988Z,1.15
2022-09-20T19:13:22.113Z,1.33
2022-09-20T19:16:04.433Z,1.52
2022-09-20T19:18:58.929Z,1.73
2022-09-20T19:21:37.436Z,2.25
2022-09-20T19:24:16.742Z,1.45
2022-09-20T19:26:45.610Z,2.87
2022-09-20T19:29:20.977Z,1.92
2022-09-20T19:31:51.541Z,1.35
2022-09-20T19:34:21.902Z,1.42
2022-09-20T19:37:03.249Z,2.03
2022-09-20T19:39:41.748Z,2.05
2022-09-20T19:42:20.037Z,2.50
2022-09-20T19:44:58.989Z,3.58
2022-09-20T19:47:36.892Z,1.33
2022-09-20T19:50:16.041Z,1.10
2022-09-20T19:52:45.373Z,1.08
2022-09-20T19:55:15.658Z,1.48
2022-09-20T19:57:47.710Z,1.45
2022-09-20T20:00:28.304Z,1.60
2022-09-20T20:02:59.690Z,1.08
2022-09-20T20:05:29.643Z,1.10
2022-09-20T20:08:13.785Z,1.20
2022-09-20T20:10:55.134Z,2.37
2022-09-20T20:13:50.633Z,2.58
2022-09-20T20:16:25.822Z,0.82
2022-09-20T20:19:08.802Z,0.95
2022-09-20T20:21:48.686Z,1.87
2022-09-20T20:24:25.788Z,2.62
2022-09-20T20:26:54.855Z,2.67
2022-09-20T20:29:25.775Z,1.20
2022-09-20T20:31:56.991Z,2.42
2022-09-20T20:34:26.819Z,1.58
2022-09-20T20:37:00.762Z,2.47
2022-09-20T20:39:29.871Z,2.50
2022-09-20T20:42:01.929Z,5.20
2022-09-20T20:44:31.342Z,0.82
2022-09-20T20:47:00.544Z,2.12
2022-09-20T20:49:28.509Z,1.67
2022-09-20T20:51:57.481Z,2.40
2022-09-20T20:54:25.464Z,2.05
2022-09-20T20:56:53.342Z,4.10
2022-09-20T20:59:21.555Z,3.35
2022-09-20T21:01:49.465Z,2.15
2022-09-20T21:04:18.723Z,2.62
2022-09-20T21:06:47.379Z,0.98
2022-09-20T21:09:15.350Z,0.73
2022-09-20T21:11:44.085Z,1.75
2022-09-20T21:14:13.126Z,1.10
2022-09-20T21:16:43.543Z,1.08
2022-09-20T21:19:14.765Z,1.08
2022-09-20T21:21:46.210Z,2.25
2022-09-20T21:24:17.256Z,0.68
2022-09-20T21:26:46.878Z,2.42
2022-09-20T21:29:16.172Z,0.80
2022-09-20T21:31:45.208Z,3.72
2022-09-20T21:34:16.211Z,1.17
2022-09-20T21:36:46.025Z,0.75
2022-09-20T21:39:14.315Z,0.98
2022-09-20T21:41:42.693Z,1.83
2022-09-20T21:44:12.171Z,0.95
2022-09-20T21:46:41.751Z,0.77
2022-09-20T21:49:11.454Z,2.45
2022-09-20T21:51:41.389Z,1.98
2022-09-20T21:54:11.471Z,1.00
2022-09-20T21:56:41.314Z,1.70
2022-09-20T21:59:09.893Z,1.50
2022-09-20T22:01:40.196Z,1.00
2022-09-20T22:04:10.325Z,1.80
2022-09-20T22:06:39.957Z,2.60
2022-09-20T22:09:10.362Z,1.08
2022-09-20T22:11:41.972Z,2.15
2022-09-20T22:14:11.581Z,2.83
2022-09-20T22:16:41.092Z,1.40
2022-09-20T22:19:11.169Z,0.98
2022-09-20T22:21:41.024Z,0.90
2022-09-20T22:24:10.439Z,0.60
2022-09-20T22:26:41.537Z,0.98
2022-09-20T22:29:10.364Z,1.65
2022-09-20T22:31:41.439Z,3.03
2022-09-20T22:34:09.559Z,0.45
2022-09-20T22:36:39.907Z,0.60
2022-09-20T22:39:10.253Z,2.40
2022-09-20T22:41:42.504Z,1.80
2022-09-20T22:44:11.318Z,1.33
2022-09-20T22:46:40.009Z,0.90
2022-09-20T22:49:08.527Z,1.00
2022-09-20T22:51:37.476Z,0.88
2022-09-20T22:54:08.158Z,0.85
2022-09-20T22:56:36.928Z,1.02
2022-09-20T22:59:08.376Z,2.47
2022-09-20T23:01:38.670Z,3.62
2022-09-20T23:04:09.737Z,2.92
2022-09-20T23:06:39.319Z,1.00
2022-09-20T23:09:09.521Z,1.12
2022-09-20T23:11:38.359Z,2.85
2022-09-20T23:14:07.965Z,1.30
2022-09-20T23:16:38.110Z,1.10
2022-09-20T23:19:07.617Z,1.80
2022-09-20T23:21:37.221Z,1.80
2022-09-20T23:24:07.728Z,2.72
2022-09-20T23:26:37.652Z,2.05
2022-09-20T23:29:09.077Z,1.42
2022-09-20T23:31:38.764Z,2.67
2022-09-20T23:34:08.380Z,3.55
2022-09-20T23:36:38.984Z,3.25
2022-09-20T23:39:08.596Z,1.65
2022-09-20T23:41:37.512Z,2.30
2022-09-20T23:44:07.570Z,3.30
2022-09-20T23:46:35.740Z,1.37
2022-09-20T23:49:04.341Z,2.12
2022-09-20T23:51:32.631Z,3.45
2022-09-20T23:54:00.788Z,1.50
2022-09-20T23:56:28.813Z,3.35
2022-09-20T23:58:56.746Z,4.70
